createdAt,value
2022-07-30T00:01:36.436Z,25.48
2022-07-30T00:04:39.370Z,25.48
2022-07-30T00:07:41.849Z,25.47
2022-07-30T00:10:44.799Z,25.49
2022-07-30T00:13:48.521Z,25.38
2022-07-30T00:16:51.495Z,25.30
2022-07-30T00:19:54.979Z,25.30
2022-07-30T00:23:02.334Z,25.32
2022-07-30T00:26:04.835Z,25.39
2022-07-30T00:29:10.241Z,25.39
2022-07-30T00:32:12.803Z,25.42
2022-07-30T00:35:16.226Z,25.38
2022-07-30T00:38:18.621Z,25.37
2022-07-30T00:41:21.620Z,25.26
2022-07-30T00:44:24.418Z,25.23
2022-07-30T00:47:27.974Z,25.15
2022-07-30T00:50:30.480Z,25.13
2022-07-30T00:53:35.071Z,25.15
2022-07-30T00:56:37.656Z,24.98
2022-07-30T00:59:40.614Z,24.99
2022-07-30T01:02:43.391Z,24.99
2022-07-30T01:05:46.605Z,25.00
2022-07-30T01:08:49.690Z,25.01
2022-07-30T01:11:52.696Z,24.99
2022-07-30T01:14:58.231Z,25.01
2022-07-30T01:18:03.831Z,25.02
2022-07-30T01:21:12.333Z,25.02
2022-07-30T01:24:38.548Z,25.08
2022-07-30T01:28:06.172Z,25.08
2022-07-30T01:31:13.046Z,25.10
2022-07-30T01:34:17.392Z,25.13
2022-07-30T01:37:21.407Z,25.08
2022-07-30T01:40:26.015Z,25.05
2022-07-30T01:43:30.874Z,25.08
2022-07-30T01:46:33.911Z,24.94
2022-07-30T01:49:38.481Z,24.93
2022-07-30T01:52:45.790Z,24.97
2022-07-30T01:55:54.592Z,25.01
2022-07-30T01:58:58.382Z,24.88
2022-07-30T02:02:02.226Z,24.80
2022-07-30T02:05:05.803Z,24.73
2022-07-30T02:08:20.687Z,24.70
2022-07-30T02:11:42.625Z,24.61
2022-07-30T02:14:50.406Z,24.48
2022-07-30T02:18:15.284Z,24.49
2022-07-30T02:21:20.531Z,24.49
2022-07-30T02:24:28.447Z,24.49
2022-07-30T02:27:35.355Z,24.41
2022-07-30T02:30:47.389Z,24.39
2022-07-30T02:33:55.190Z,24.39
2022-07-30T02:36:59.383Z,24.38
2022-07-30T02:40:04.637Z,24.27
2022-07-30T02:43:08.136Z,24.29
2022-07-30T02:46:14.421Z,24.20
2022-07-30T02:49:20.298Z,24.20
2022-07-30T02:52:26.865Z,24.21
2022-07-30T02:55:32.632Z,24.20
2022-07-30T02:58:38.105Z,24.09
2022-07-30T03:01:42.692Z,24.02
2022-07-30T03:04:49.127Z,24.11
2022-07-30T03:07:55.055Z,24.09
2022-07-30T03:10:58.316Z,24.08
2022-07-30T03:14:01.076Z,24.04
2022-07-30T03:20:30.904Z,24.01
2022-07-30T03:23:36.656Z,24.04
2022-07-30T03:26:39.735Z,23.97
2022-07-30T03:29:45.904Z,23.94
2022-07-30T03:32:49.268Z,23.92
2022-07-30T03:35:53.205Z,23.79
2022-07-30T03:38:57.043Z,23.81
2022-07-30T03:42:00.632Z,23.78
2022-07-30T03:45:08.961Z,23.76
2022-07-30T03:48:13.770Z,23.73
2022-07-30T03:51:17.718Z,23.80
2022-07-30T03:54:21.132Z,23.76
2022-07-30T03:57:25.996Z,23.77
2022-07-30T04:00:29.516Z,23.71
2022-07-30T04:03:33.571Z,23.64
2022-07-30T04:06:43.028Z,23.69
2022-07-30T04:09:45.979Z,23.71
2022-07-30T04:12:50.353Z,23.71
2022-07-30T04:16:37.760Z,23.73
2022-07-30T04:19:28.678Z,23.70
2022-07-30T04:22:33.983Z,23.79
2022-07-30T04:25:37.343Z,23.75
2022-07-30T04:28:40.497Z,23.72
2022-07-30T04:31:43.769Z,23.72
2022-07-30T04:34:53.229Z,23.80
2022-07-30T04:37:56.475Z,23.81
2022-07-30T04:40:59.237Z,23.86
2022-07-30T04:44:02.600Z,23.89
2022-07-30T04:47:06.300Z,23.84
2022-07-30T04:50:12.747Z,23.82
2022-07-30T04:53:17.137Z,23.86
2022-07-30T04:56:21.912Z,23.91
2022-07-30T04:59:25.376Z,23.98
2022-07-30T05:02:30.821Z,23.89
2022-07-30T05:05:35.360Z,23.99
2022-07-30T05:08:39.964Z,24.02
2022-07-30T05:11:49.439Z,24.06
2022-07-30T05:14:52.128Z,24.12
2022-07-30T05:17:55.748Z,24.07
2022-07-30T05:20:59.274Z,24.15
2022-07-30T05:24:02.056Z,24.21
2022-07-30T05:27:05.767Z,24.29
2022-07-30T05:30:08.796Z,24.40
2022-07-30T05:33:15.532Z,24.54
2022-07-30T05:36:20.400Z,24.64
2022-07-30T05:39:23.108Z,24.67
2022-07-30T05:42:28.886Z,24.88
2022-07-30T05:45:31.911Z,25.02
2022-07-30T05:48:37.841Z,25.17
2022-07-30T05:51:40.475Z,25.39
2022-07-30T05:54:45.081Z,25.54
2022-07-30T05:57:49.154Z,25.61
2022-07-30T06:00:53.329Z,25.70
2022-07-30T06:03:56.411Z,25.68
2022-07-30T06:07:09.129Z,25.59
2022-07-30T06:10:12.829Z,25.58
2022-07-30T06:13:15.552Z,25.51
2022-07-30T06:16:18.815Z,25.59
2022-07-30T06:19:21.627Z,25.45
2022-07-30T06:22:26.215Z,25.56
2022-07-30T06:25:29.153Z,25.61
2022-07-30T06:28:38.260Z,25.59
2022-07-30T06:31:42.322Z,25.55
2022-07-30T06:34:45.890Z,25.63
2022-07-30T06:37:58.812Z,25.73
2022-07-30T06:41:10.357Z,25.77
2022-07-30T06:44:14.751Z,25.87
2022-07-30T06:47:29.012Z,25.89
2022-07-30T06:50:31.973Z,25.95
2022-07-30T06:53:41.647Z,26.09
2022-07-30T06:56:59.785Z,26.27
2022-07-30T07:00:05.975Z,26.54
2022-07-30T07:03:11.626Z,26.95
2022-07-30T07:06:14.940Z,27.29
2022-07-30T07:09:17.827Z,27.48
2022-07-30T07:12:21.102Z,27.52
2022-07-30T07:15:36.203Z,27.44
2022-07-30T07:18:40.865Z,27.47
2022-07-30T07:21:43.531Z,27.47
2022-07-30T07:24:47.122Z,27.56
2022-07-30T07:28:12.762Z,27.54
2022-07-30T07:32:06.081Z,27.66
2022-07-30T07:34:37.981Z,27.56
2022-07-30T07:37:41.043Z,27.50
2022-07-30T07:40:43.747Z,27.42
2022-07-30T07:43:47.444Z,27.40
2022-07-30T07:46:53.681Z,27.33
2022-07-30T07:49:57.621Z,27.44
2022-07-30T07:53:00.327Z,27.50
2022-07-30T07:56:03.437Z,27.56
2022-07-30T07:59:06.927Z,27.69
2022-07-30T08:02:11.498Z,27.67
2022-07-30T08:05:16.437Z,27.63
2022-07-30T08:08:19.912Z,27.48
2022-07-30T08:11:29.141Z,27.30
2022-07-30T08:14:33.070Z,27.06
2022-07-30T08:17:45.414Z,26.98
2022-07-30T08:20:48.240Z,26.84
2022-07-30T08:23:54.346Z,26.74
2022-07-30T08:26:57.467Z,26.98
2022-07-30T08:30:09.075Z,27.01
2022-07-30T08:33:11.811Z,27.13
2022-07-30T08:36:15.242Z,27.23
2022-07-30T08:39:18.096Z,27.16
2022-07-30T08:42:22.407Z,27.08
2022-07-30T08:45:34.591Z,27.20
2022-07-30T08:48:41.181Z,27.40
2022-07-30T08:51:44.457Z,27.64
2022-07-30T08:54:48.142Z,27.87
2022-07-30T08:57:51.901Z,28.13
2022-07-30T09:07:08.283Z,28.21
2022-07-30T09:10:11.471Z,28.17
2022-07-30T09:13:31.822Z,28.14
2022-07-30T09:16:35.103Z,28.19
2022-07-30T09:19:38.678Z,28.08
2022-07-30T09:22:44.418Z,27.84
2022-07-30T09:26:00.504Z,27.67
2022-07-30T09:29:19.898Z,27.46
2022-07-30T09:32:49.432Z,27.23
2022-07-30T09:35:56.219Z,26.99
2022-07-30T09:39:03.877Z,26.91
2022-07-30T09:42:20.601Z,26.79
2022-07-30T09:45:23.273Z,26.70
2022-07-30T09:48:27.854Z,26.66
2022-07-30T09:51:55.509Z,26.45
2022-07-30T09:55:00.194Z,26.34
2022-07-30T09:58:05.756Z,26.29
2022-07-30T10:01:11.600Z,26.03
2022-07-30T10:04:30.513Z,25.89
2022-07-30T10:07:42.820Z,25.59
2022-07-30T10:10:50.922Z,25.19
2022-07-30T10:13:56.486Z,24.88
2022-07-30T10:17:00.365Z,24.74
2022-07-30T10:20:09.086Z,24.47
2022-07-30T10:23:15.794Z,24.44
2022-07-30T10:26:27.688Z,24.47
2022-07-30T10:29:38.659Z,24.44
2022-07-30T10:32:46.705Z,24.40
2022-07-30T10:35:56.921Z,24.38
2022-07-30T10:39:00.426Z,24.45
2022-07-30T10:42:33.149Z,24.32
2022-07-30T10:45:49.578Z,24.19
2022-07-30T10:48:52.560Z,24.12
2022-07-30T10:51:55.973Z,23.99
2022-07-30T10:55:00.439Z,24.02
2022-07-30T10:58:06.044Z,24.05
2022-07-30T11:01:18.282Z,24.16
2022-07-30T11:04:25.790Z,24.28
2022-07-30T11:07:32.223Z,24.34
2022-07-30T11:10:43.983Z,24.38
2022-07-30T11:13:58.155Z,24.53
2022-07-30T11:17:01.422Z,24.73
2022-07-30T11:20:07.562Z,24.97
2022-07-30T11:23:20.613Z,25.27
2022-07-30T11:26:38.764Z,25.77
2022-07-30T11:29:51.359Z,26.39
2022-07-30T11:32:56.311Z,26.69
2022-07-30T11:36:07.856Z,26.81
2022-07-30T11:39:13.437Z,27.05
2022-07-30T11:42:33.982Z,27.28
2022-07-30T11:45:36.778Z,27.49
2022-07-30T11:48:56.347Z,27.63
2022-07-30T11:51:59.349Z,27.95
2022-07-30T11:55:02.253Z,28.65
2022-07-30T11:58:24.490Z,29.15
2022-07-30T12:01:27.584Z,29.61
2022-07-30T12:04:30.748Z,30.54
2022-07-30T12:07:33.439Z,31.76
2022-07-30T12:10:36.413Z,32.46
2022-07-30T12:13:44.538Z,32.65
2022-07-30T12:16:54.239Z,32.57
2022-07-30T12:19:56.843Z,32.43
2022-07-30T12:22:59.854Z,32.37
2022-07-30T12:26:03.665Z,31.93
2022-07-30T12:29:18.717Z,31.47
2022-07-30T12:32:21.371Z,31.17
2022-07-30T12:35:42.307Z,31.18
2022-07-30T12:38:48.769Z,31.11
2022-07-30T12:41:55.969Z,30.92
2022-07-30T12:44:59.920Z,30.61
2022-07-30T12:48:02.701Z,30.30
2022-07-30T12:51:08.657Z,30.14
2022-07-30T12:54:17.678Z,30.36
2022-07-30T12:57:22.334Z,30.90
2022-07-30T13:00:45.100Z,31.20
2022-07-30T13:03:47.957Z,31.42
2022-07-30T13:07:10.729Z,31.48
2022-07-30T13:10:14.741Z,31.57
2022-07-30T13:13:17.671Z,31.65
2022-07-30T13:16:20.828Z,31.85
2022-07-30T13:19:23.979Z,32.05
2022-07-30T13:22:26.690Z,32.10
2022-07-30T13:25:38.995Z,31.97
2022-07-30T13:28:43.507Z,31.73
2022-07-30T13:31:46.427Z,31.35
2022-07-30T13:34:49.020Z,30.98
2022-07-30T13:37:51.772Z,30.75
2022-07-30T13:40:59.070Z,30.38
2022-07-30T13:44:04.789Z,30.07
2022-07-30T13:47:10.230Z,29.76
2022-07-30T13:50:13.422Z,29.47
2022-07-30T13:53:16.184Z,29.27
2022-07-30T13:56:19.581Z,29.11
2022-07-30T13:59:22.609Z,29.17
2022-07-30T14:02:25.364Z,28.82
2022-07-30T14:05:28.860Z,28.59
2022-07-30T14:08:31.487Z,28.31
2022-07-30T14:11:34.368Z,28.03
2022-07-30T14:14:36.879Z,27.84
2022-07-30T14:17:40.032Z,27.65
2022-07-30T14:20:45.631Z,27.35
2022-07-30T14:23:51.404Z,27.22
2022-07-30T14:26:57.917Z,27.14
2022-07-30T14:30:01.334Z,27.13
2022-07-30T14:33:04.778Z,27.07
2022-07-30T14:36:07.977Z,26.92
2022-07-30T14:39:10.439Z,26.91
2022-07-30T14:42:16.268Z,26.97
2022-07-30T14:45:18.730Z,27.22
2022-07-30T14:48:21.694Z,27.23
2022-07-30T14:51:26.328Z,27.31
2022-07-30T14:54:31.486Z,27.45
2022-07-30T14:57:34.194Z,27.33
2022-07-30T15:00:48.583Z,27.21
2022-07-30T15:03:51.732Z,27.16
2022-07-30T15:06:54.828Z,27.11
2022-07-30T15:09:57.244Z,27.13
2022-07-30T15:13:00.225Z,27.18
2022-07-30T15:16:02.548Z,27.28
2022-07-30T15:19:05.348Z,27.41
2022-07-30T15:22:07.810Z,27.66
2022-07-30T15:25:10.948Z,27.75
2022-07-30T15:28:13.408Z,27.60
2022-07-30T15:31:16.352Z,27.47
2022-07-30T15:34:18.756Z,27.35
2022-07-30T15:37:21.562Z,27.32
2022-07-30T15:40:24.641Z,27.24
2022-07-30T15:43:27.637Z,27.05
2022-07-30T15:46:29.941Z,26.77
2022-07-30T15:49:32.966Z,26.65
2022-07-30T15:52:36.632Z,26.68
2022-07-30T15:55:47.326Z,26.68
2022-07-30T15:58:50.283Z,26.74
2022-07-30T16:01:53.817Z,26.70
2022-07-30T16:04:56.550Z,26.72
2022-07-30T16:07:59.260Z,26.67
2022-07-30T16:11:04.395Z,26.64
2022-07-30T16:14:07.210Z,26.60
2022-07-30T16:17:13.715Z,26.65
2022-07-30T16:20:16.828Z,26.64
2022-07-30T16:23:21.775Z,26.54
2022-07-30T16:26:24.782Z,26.46
2022-07-30T16:29:27.563Z,26.46
2022-07-30T16:32:30.178Z,26.40
2022-07-30T16:35:32.888Z,26.44
2022-07-30T16:38:35.874Z,26.39
2022-07-30T16:41:38.590Z,26.29
2022-07-30T16:44:41.555Z,26.19
2022-07-30T16:47:44.260Z,26.19
2022-07-30T16:50:47.030Z,26.20
2022-07-30T16:53:49.790Z,26.03
2022-07-30T16:56:52.830Z,25.91
2022-07-30T16:59:55.737Z,25.97
2022-07-30T17:02:59.532Z,26.01
2022-07-30T17:06:02.287Z,25.96
2022-07-30T17:09:05.196Z,25.94
2022-07-30T17:12:11.928Z,25.93
2022-07-30T17:15:15.097Z,25.87
2022-07-30T17:18:17.930Z,25.79
2022-07-30T17:21:20.619Z,25.75
2022-07-30T17:24:23.366Z,25.62
2022-07-30T17:27:30.085Z,25.63
2022-07-30T17:30:33.547Z,25.52
2022-07-30T17:33:36.218Z,25.43
2022-07-30T17:36:40.237Z,25.26
2022-07-30T17:40:24.639Z,25.20
2022-07-30T17:43:07.723Z,25.18
2022-07-30T17:46:10.525Z,25.15
2022-07-30T17:49:13.371Z,25.06
2022-07-30T17:52:16.387Z,25.04
2022-07-30T17:55:19.285Z,24.99
2022-07-30T17:58:22.632Z,25.00
2022-07-30T18:01:25.497Z,25.04
2022-07-30T18:04:28.581Z,24.95
2022-07-30T18:07:31.138Z,24.95
2022-07-30T18:10:34.165Z,24.86
2022-07-30T18:13:36.843Z,24.85
2022-07-30T18:16:39.895Z,24.88
2022-07-30T18:19:42.508Z,24.67
2022-07-30T18:22:45.659Z,24.53
2022-07-30T18:25:53.015Z,24.57
2022-07-30T18:28:57.286Z,24.70
2022-07-30T18:32:00.056Z,24.53
2022-07-30T18:35:03.403Z,24.45
2022-07-30T18:38:05.739Z,24.34
2022-07-30T18:41:08.664Z,24.08
2022-07-30T18:44:11.145Z,23.85
2022-07-30T18:47:14.259Z,23.90
2022-07-30T18:50:17.578Z,23.96
2022-07-30T18:53:20.974Z,24.00
2022-07-30T18:56:23.426Z,23.84
2022-07-30T18:59:26.431Z,23.77
2022-07-30T19:02:28.985Z,23.82
2022-07-30T19:05:31.905Z,23.71
2022-07-30T19:08:34.507Z,23.77
2022-07-30T19:11:37.655Z,23.86
2022-07-30T19:14:40.217Z,23.80
2022-07-30T19:17:45.986Z,23.72
2022-07-30T19:20:50.754Z,23.70
2022-07-30T19:23:53.779Z,23.70
2022-07-30T19:26:57.207Z,23.74
2022-07-30T19:30:00.602Z,23.78
2022-07-30T19:33:13.970Z,23.76
2022-07-30T19:36:21.144Z,23.76
2022-07-30T19:39:23.668Z,23.73
2022-07-30T19:42:30.611Z,23.70
2022-07-30T19:45:47.581Z,23.85
2022-07-30T19:48:51.269Z,23.85
2022-07-30T19:52:09.837Z,23.83
2022-07-30T19:55:18.458Z,23.85
2022-07-30T19:58:38.205Z,23.80
2022-07-30T20:01:43.850Z,23.87
2022-07-30T20:04:46.764Z,23.85
2022-07-30T20:07:49.729Z,23.83
2022-07-30T20:10:52.433Z,23.81
2022-07-30T20:13:54.980Z,23.81
2022-07-30T20:17:01.974Z,23.81
2022-07-30T20:20:05.820Z,23.68
2022-07-30T20:23:09.873Z,23.72
2022-07-30T20:26:14.957Z,23.60
2022-07-30T20:29:19.344Z,23.65
2022-07-30T20:32:24.649Z,23.53
2022-07-30T20:35:28.354Z,23.48
2022-07-30T20:38:33.823Z,23.43
2022-07-30T20:41:40.259Z,23.50
2022-07-30T20:44:50.517Z,23.46
2022-07-30T20:47:56.648Z,23.40
2022-07-30T20:50:59.476Z,23.34
2022-07-30T20:54:03.859Z,23.38
2022-07-30T20:57:08.054Z,23.39
2022-07-30T21:00:20.261Z,23.41
2022-07-30T21:03:23.126Z,23.39
2022-07-30T21:06:26.310Z,23.33
2022-07-30T21:09:29.323Z,23.33
2022-07-30T21:12:53.301Z,23.34
2022-07-30T21:16:15.388Z,23.35
2022-07-30T21:19:19.263Z,23.06
2022-07-30T21:22:25.359Z,22.99
2022-07-30T21:25:33.156Z,23.11
2022-07-30T21:28:36.308Z,22.97
2022-07-30T21:32:02.265Z,22.96
2022-07-30T21:35:08.419Z,22.94
2022-07-30T21:38:11.449Z,23.00
2022-07-30T21:41:15.266Z,23.05
2022-07-30T21:44:18.324Z,22.92
2022-07-30T21:47:20.815Z,22.95
2022-07-30T21:50:23.456Z,22.96
2022-07-30T21:53:29.493Z,22.93
2022-07-30T21:56:47.066Z,22.76
2022-07-30T21:59:49.788Z,22.72
2022-07-30T22:02:53.062Z,22.79
2022-07-30T22:05:57.410Z,22.69
2022-07-30T22:08:59.717Z,22.69
2022-07-30T22:12:09.803Z,22.45
2022-07-30T22:15:15.170Z,22.29
2022-07-30T22:18:21.609Z,22.34
2022-07-30T22:21:25.494Z,22.36
2022-07-30T22:24:29.264Z,22.50
2022-07-30T22:30:56.523Z,22.37
2022-07-30T22:33:58.831Z,22.20
2022-07-30T22:37:03.394Z,22.37
2022-07-30T22:40:07.342Z,22.26
2022-07-30T22:43:12.828Z,22.27
2022-07-30T22:49:46.574Z,22.31
2022-07-30T22:53:08.138Z,22.17
2022-07-30T22:56:23.773Z,22.12
2022-07-30T22:59:55.892Z,22.11
2022-07-30T23:02:50.260Z,22.14
2022-07-30T23:05:56.179Z,22.00
2022-07-30T23:09:00.747Z,22.04
2022-07-30T23:12:03.601Z,22.19
2022-07-30T23:12:32.235Z,22.53
2022-07-30T23:12:34.100Z,22.35
2022-07-30T23:15:07.603Z,22.02
2022-07-30T23:18:10.476Z,21.84
2022-07-30T23:21:14.139Z,21.81
2022-07-30T23:24:17.696Z,21.94
2022-07-30T23:27:21.241Z,21.83
2022-07-30T23:30:24.739Z,21.89
2022-07-30T23:33:35.549Z,21.90
2022-07-30T23:36:38.284Z,21.86
2022-07-30T23:39:41.284Z,21.86
2022-07-30T23:42:43.739Z,21.90
2022-07-30T23:45:46.642Z,21.78
2022-07-30T23:48:49.157Z,21.70
2022-07-30T23:51:52.165Z,21.47
2022-07-30T23:54:54.616Z,21.40
2022-07-30T23:57:58.691Z,21.49
